sensor_id;sensor_type;location;lat;lon;timestamp;P1;durP1;ratioP1;P2;durP2;ratioP2
5937;SDS011;2994;51.220;4.412;2024-01-11T00:00:23;21.10;;;17.77;;
5937;SDS011;2994;51.220;4.412;2024-01-11T00:02:48;23.53;;;19.23;;
5937;SDS011;2994;51.220;4.412;2024-01-11T00:05:14;23.87;;;18.70;;
5937;SDS011;2994;51.220;4.412;2024-01-11T00:07:39;20.63;;;17.67;;
5937;SDS011;2994;51.220;4.412;2024-01-11T00:10:05;22.30;;;18.97;;
5937;SDS011;2994;51.220;4.412;2024-01-11T00:12:31;21.67;;;18.60;;
5937;SDS011;2994;51.220;4.412;2024-01-11T00:14:56;23.80;;;18.17;;
5937;SDS011;2994;51.220;4.412;2024-01-11T00:17:23;21.97;;;19.40;;
5937;SDS011;2994;51.220;4.412;2024-01-11T00:19:49;21.77;;;18.37;;
5937;SDS011;2994;51.220;4.412;2024-01-11T00:22:15;23.07;;;18.80;;
5937;SDS011;2994;51.220;4.412;2024-01-11T00:24:41;25.43;;;19.70;;
5937;SDS011;2994;51.220;4.412;2024-01-11T00:27:06;23.63;;;19.77;;
5937;SDS011;2994;51.220;4.412;2024-01-11T00:29:32;22.30;;;19.00;;
5937;SDS011;2994;51.220;4.412;2024-01-11T00:31:57;22.23;;;19.37;;
5937;SDS011;2994;51.220;4.412;2024-01-11T00:34:23;21.70;;;19.40;;
5937;SDS011;2994;51.220;4.412;2024-01-11T00:36:48;20.80;;;18.50;;
5937;SDS011;2994;51.220;4.412;2024-01-11T00:39:14;23.80;;;19.33;;
5937;SDS011;2994;51.220;4.412;2024-01-11T00:41:39;22.17;;;19.00;;
5937;SDS011;2994;51.220;4.412;2024-01-11T00:44:05;27.03;;;20.10;;
5937;SDS011;2994;51.220;4.412;2024-01-11T00:46:32;20.27;;;17.30;;
5937;SDS011;2994;51.220;4.412;2024-01-11T00:48:58;21.57;;;17.83;;
5937;SDS011;2994;51.220;4.412;2024-01-11T00:51:23;25.90;;;18.73;;
5937;SDS011;2994;51.220;4.412;2024-01-11T00:53:48;21.93;;;18.00;;
5937;SDS011;2994;51.220;4.412;2024-01-11T00:56:20;24.50;;;20.00;;
5937;SDS011;2994;51.220;4.412;2024-01-11T00:58:46;25.10;;;20.00;;
5937;SDS011;2994;51.220;4.412;2024-01-11T01:01:12;23.50;;;19.10;;
5937;SDS011;2994;51.220;4.412;2024-01-11T01:03:38;23.50;;;21.00;;
5937;SDS011;2994;51.220;4.412;2024-01-11T01:06:04;28.33;;;21.40;;
5937;SDS011;2994;51.220;4.412;2024-01-11T01:08:29;22.77;;;20.17;;
5937;SDS011;2994;51.220;4.412;2024-01-11T01:10:55;22.33;;;20.03;;
5937;SDS011;2994;51.220;4.412;2024-01-11T01:13:20;25.80;;;20.10;;
5937;SDS011;2994;51.220;4.412;2024-01-11T01:15:46;24.40;;;19.50;;
5937;SDS011;2994;51.220;4.412;2024-01-11T01:18:11;23.70;;;19.40;;
5937;SDS011;2994;51.220;4.412;2024-01-11T01:20:37;23.80;;;20.17;;
5937;SDS011;2994;51.220;4.412;2024-01-11T01:23:02;25.13;;;20.17;;
5937;SDS011;2994;51.220;4.412;2024-01-11T01:25:28;29.47;;;22.50;;
5937;SDS011;2994;51.220;4.412;2024-01-11T01:27:53;24.60;;;21.60;;
5937;SDS011;2994;51.220;4.412;2024-01-11T01:30:19;23.03;;;20.33;;
5937;SDS011;2994;51.220;4.412;2024-01-11T01:32:45;24.40;;;21.17;;
5937;SDS011;2994;51.220;4.412;2024-01-11T01:35:10;23.00;;;20.27;;
5937;SDS011;2994;51.220;4.412;2024-01-11T01:37:36;24.10;;;19.23;;
5937;SDS011;2994;51.220;4.412;2024-01-11T01:40:01;24.60;;;21.00;;
5937;SDS011;2994;51.220;4.412;2024-01-11T01:42:27;25.13;;;20.50;;
5937;SDS011;2994;51.220;4.412;2024-01-11T01:44:53;25.20;;;20.70;;
5937;SDS011;2994;51.220;4.412;2024-01-11T01:47:18;26.17;;;21.13;;
5937;SDS011;2994;51.220;4.412;2024-01-11T01:49:43;26.70;;;21.40;;
5937;SDS011;2994;51.220;4.412;2024-01-11T01:52:09;27.83;;;21.13;;
5937;SDS011;2994;51.220;4.412;2024-01-11T01:54:39;27.83;;;21.17;;
5937;SDS011;2994;51.220;4.412;2024-01-11T01:57:04;25.87;;;21.60;;
5937;SDS011;2994;51.220;4.412;2024-01-11T01:59:32;26.07;;;20.47;;
5937;SDS011;2994;51.220;4.412;2024-01-11T02:01:58;26.67;;;20.70;;
5937;SDS011;2994;51.220;4.412;2024-01-11T02:04:24;22.93;;;18.57;;
5937;SDS011;2994;51.220;4.412;2024-01-11T02:06:50;28.20;;;21.70;;
5937;SDS011;2994;51.220;4.412;2024-01-11T02:09:18;25.53;;;20.63;;
5937;SDS011;2994;51.220;4.412;2024-01-11T02:11:44;27.33;;;21.87;;
5937;SDS011;2994;51.220;4.412;2024-01-11T02:14:10;25.87;;;20.93;;
5937;SDS011;2994;51.220;4.412;2024-01-11T02:16:36;25.37;;;21.20;;
5937;SDS011;2994;51.220;4.412;2024-01-11T02:19:02;26.40;;;20.23;;
5937;SDS011;2994;51.220;4.412;2024-01-11T02:21:29;23.47;;;20.37;;
5937;SDS011;2994;51.220;4.412;2024-01-11T02:24:04;26.27;;;21.87;;
5937;SDS011;2994;51.220;4.412;2024-01-11T02:26:30;23.97;;;20.00;;
5937;SDS011;2994;51.220;4.412;2024-01-11T02:28:56;25.87;;;22.73;;
5937;SDS011;2994;51.220;4.412;2024-01-11T02:31:22;22.90;;;19.97;;
5937;SDS011;2994;51.220;4.412;2024-01-11T02:33:47;26.10;;;21.60;;
5937;SDS011;2994;51.220;4.412;2024-01-11T02:36:13;27.20;;;19.67;;
5937;SDS011;2994;51.220;4.412;2024-01-11T02:38:39;21.63;;;19.30;;
5937;SDS011;2994;51.220;4.412;2024-01-11T02:41:07;25.00;;;21.03;;
5937;SDS011;2994;51.220;4.412;2024-01-11T02:43:32;24.33;;;19.40;;
5937;SDS011;2994;51.220;4.412;2024-01-11T02:46:00;22.90;;;19.17;;
5937;SDS011;2994;51.220;4.412;2024-01-11T02:48:28;24.27;;;20.50;;
5937;SDS011;2994;51.220;4.412;2024-01-11T02:50:55;28.10;;;21.20;;
5937;SDS011;2994;51.220;4.412;2024-01-11T02:53:21;23.70;;;21.10;;
5937;SDS011;2994;51.220;4.412;2024-01-11T02:55:47;26.80;;;21.20;;
5937;SDS011;2994;51.220;4.412;2024-01-11T02:58:12;28.50;;;23.33;;
5937;SDS011;2994;51.220;4.412;2024-01-11T03:00:38;25.03;;;20.47;;
5937;SDS011;2994;51.220;4.412;2024-01-11T03:03:03;25.57;;;22.43;;
5937;SDS011;2994;51.220;4.412;2024-01-11T03:05:29;23.97;;;19.93;;
5937;SDS011;2994;51.220;4.412;2024-01-11T03:07:54;26.43;;;23.53;;
5937;SDS011;2994;51.220;4.412;2024-01-11T03:10:20;25.37;;;20.17;;
5937;SDS011;2994;51.220;4.412;2024-01-11T03:12:45;23.27;;;20.53;;
5937;SDS011;2994;51.220;4.412;2024-01-11T03:15:11;24.43;;;19.87;;
5937;SDS011;2994;51.220;4.412;2024-01-11T03:17:37;27.77;;;20.70;;
5937;SDS011;2994;51.220;4.412;2024-01-11T03:20:02;24.87;;;20.40;;
5937;SDS011;2994;51.220;4.412;2024-01-11T03:22:30;24.90;;;21.47;;
5937;SDS011;2994;51.220;4.412;2024-01-11T03:24:56;22.03;;;19.63;;
5937;SDS011;2994;51.220;4.412;2024-01-11T03:27:21;26.30;;;20.80;;
5937;SDS011;2994;51.220;4.412;2024-01-11T03:29:47;24.43;;;20.40;;
5937;SDS011;2994;51.220;4.412;2024-01-11T03:32:14;24.50;;;19.93;;
5937;SDS011;2994;51.220;4.412;2024-01-11T03:34:40;24.50;;;19.60;;
5937;SDS011;2994;51.220;4.412;2024-01-11T03:37:05;25.83;;;21.33;;
5937;SDS011;2994;51.220;4.412;2024-01-11T03:39:30;24.10;;;20.10;;
5937;SDS011;2994;51.220;4.412;2024-01-11T03:41:56;23.70;;;20.07;;
5937;SDS011;2994;51.220;4.412;2024-01-11T03:44:22;22.67;;;19.37;;
5937;SDS011;2994;51.220;4.412;2024-01-11T03:46:47;22.43;;;20.03;;
5937;SDS011;2994;51.220;4.412;2024-01-11T03:49:13;25.30;;;21.33;;
5937;SDS011;2994;51.220;4.412;2024-01-11T03:51:38;27.40;;;20.90;;
5937;SDS011;2994;51.220;4.412;2024-01-11T03:54:03;23.77;;;19.73;;
5937;SDS011;2994;51.220;4.412;2024-01-11T03:56:29;22.63;;;20.07;;
5937;SDS011;2994;51.220;4.412;2024-01-11T03:58:55;22.33;;;18.33;;
5937;SDS011;2994;51.220;4.412;2024-01-11T04:01:20;25.13;;;19.40;;
5937;SDS011;2994;51.220;4.412;2024-01-11T04:03:46;24.77;;;19.60;;
5937;SDS011;2994;51.220;4.412;2024-01-11T04:06:23;22.87;;;20.47;;
5937;SDS011;2994;51.220;4.412;2024-01-11T04:08:49;26.23;;;20.00;;
5937;SDS011;2994;51.220;4.412;2024-01-11T04:11:15;22.20;;;19.83;;
5937;SDS011;2994;51.220;4.412;2024-01-11T04:13:42;24.50;;;20.70;;
5937;SDS011;2994;51.220;4.412;2024-01-11T04:16:07;24.33;;;18.43;;
5937;SDS011;2994;51.220;4.412;2024-01-11T04:18:33;26.93;;;20.60;;
5937;SDS011;2994;51.220;4.412;2024-01-11T04:20:58;22.50;;;19.73;;
5937;SDS011;2994;51.220;4.412;2024-01-11T04:23:24;29.13;;;20.90;;
5937;SDS011;2994;51.220;4.412;2024-01-11T04:25:49;26.23;;;21.63;;
5937;SDS011;2994;51.220;4.412;2024-01-11T04:28:18;25.17;;;20.10;;
5937;SDS011;2994;51.220;4.412;2024-01-11T04:30:44;24.20;;;20.80;;
5937;SDS011;2994;51.220;4.412;2024-01-11T04:33:09;24.67;;;21.20;;
5937;SDS011;2994;51.220;4.412;2024-01-11T04:35:35;26.60;;;20.10;;
5937;SDS011;2994;51.220;4.412;2024-01-11T04:38:01;23.83;;;19.77;;
5937;SDS011;2994;51.220;4.412;2024-01-11T04:40:26;22.57;;;20.30;;
5937;SDS011;2994;51.220;4.412;2024-01-11T04:42:52;25.63;;;20.63;;
5937;SDS011;2994;51.220;4.412;2024-01-11T04:45:17;22.83;;;19.23;;
5937;SDS011;2994;51.220;4.412;2024-01-11T04:47:42;27.33;;;20.10;;
5937;SDS011;2994;51.220;4.412;2024-01-11T04:50:08;26.43;;;19.00;;
5937;SDS011;2994;51.220;4.412;2024-01-11T04:52:34;22.83;;;18.40;;
5937;SDS011;2994;51.220;4.412;2024-01-11T04:54:59;25.20;;;19.70;;
5937;SDS011;2994;51.220;4.412;2024-01-11T04:57:24;24.93;;;20.47;;
5937;SDS011;2994;51.220;4.412;2024-01-11T04:59:50;25.00;;;21.03;;
5937;SDS011;2994;51.220;4.412;2024-01-11T05:02:15;27.27;;;21.00;;
5937;SDS011;2994;51.220;4.412;2024-01-11T05:04:41;27.13;;;20.97;;
5937;SDS011;2994;51.220;4.412;2024-01-11T05:07:06;20.80;;;18.67;;
5937;SDS011;2994;51.220;4.412;2024-01-11T05:09:31;23.70;;;20.53;;
5937;SDS011;2994;51.220;4.412;2024-01-11T05:11:57;21.77;;;18.90;;
5937;SDS011;2994;51.220;4.412;2024-01-11T05:14:23;25.27;;;20.87;;
5937;SDS011;2994;51.220;4.412;2024-01-11T05:16:48;23.50;;;19.90;;
5937;SDS011;2994;51.220;4.412;2024-01-11T05:19:15;25.83;;;19.47;;
5937;SDS011;2994;51.220;4.412;2024-01-11T05:21:40;21.30;;;18.50;;
5937;SDS011;2994;51.220;4.412;2024-01-11T05:24:06;23.23;;;20.07;;
5937;SDS011;2994;51.220;4.412;2024-01-11T05:26:31;22.20;;;19.13;;
5937;SDS011;2994;51.220;4.412;2024-01-11T05:28:57;21.97;;;18.40;;
5937;SDS011;2994;51.220;4.412;2024-01-11T05:31:22;25.60;;;20.33;;
5937;SDS011;2994;51.220;4.412;2024-01-11T05:33:48;22.67;;;20.17;;
5937;SDS011;2994;51.220;4.412;2024-01-11T05:36:13;23.33;;;19.50;;
5937;SDS011;2994;51.220;4.412;2024-01-11T05:38:39;23.33;;;17.93;;
5937;SDS011;2994;51.220;4.412;2024-01-11T05:41:05;23.00;;;19.03;;
5937;SDS011;2994;51.220;4.412;2024-01-11T05:43:30;22.90;;;18.97;;
5937;SDS011;2994;51.220;4.412;2024-01-11T05:45:56;23.00;;;18.83;;
5937;SDS011;2994;51.220;4.412;2024-01-11T05:48:21;19.77;;;17.50;;
5937;SDS011;2994;51.220;4.412;2024-01-11T05:50:46;23.03;;;18.80;;
5937;SDS011;2994;51.220;4.412;2024-01-11T05:53:12;21.60;;;18.40;;
5937;SDS011;2994;51.220;4.412;2024-01-11T05:55:38;24.73;;;19.37;;
5937;SDS011;2994;51.220;4.412;2024-01-11T05:58:04;24.77;;;21.43;;
5937;SDS011;2994;51.220;4.412;2024-01-11T06:00:30;23.93;;;20.50;;
5937;SDS011;2994;51.220;4.412;2024-01-11T06:02:55;24.10;;;19.57;;
5937;SDS011;2994;51.220;4.412;2024-01-11T06:05:21;23.30;;;18.77;;
5937;SDS011;2994;51.220;4.412;2024-01-11T06:07:46;26.10;;;19.37;;
5937;SDS011;2994;51.220;4.412;2024-01-11T06:10:12;24.73;;;21.17;;
5937;SDS011;2994;51.220;4.412;2024-01-11T06:12:38;25.07;;;21.00;;
5937;SDS011;2994;51.220;4.412;2024-01-11T06:15:04;24.00;;;21.37;;
5937;SDS011;2994;51.220;4.412;2024-01-11T06:17:30;25.27;;;19.80;;
5937;SDS011;2994;51.220;4.412;2024-01-11T06:19:55;21.93;;;19.20;;
5937;SDS011;2994;51.220;4.412;2024-01-11T06:22:21;21.90;;;18.43;;
5937;SDS011;2994;51.220;4.412;2024-01-11T06:24:46;24.57;;;21.00;;
5937;SDS011;2994;51.220;4.412;2024-01-11T06:27:12;26.63;;;20.30;;
5937;SDS011;2994;51.220;4.412;2024-01-11T06:29:37;24.63;;;19.60;;
5937;SDS011;2994;51.220;4.412;2024-01-11T06:32:03;24.20;;;19.50;;
5937;SDS011;2994;51.220;4.412;2024-01-11T06:34:28;23.57;;;20.40;;
5937;SDS011;2994;51.220;4.412;2024-01-11T06:36:54;25.07;;;21.30;;
5937;SDS011;2994;51.220;4.412;2024-01-11T06:39:20;24.73;;;20.20;;
5937;SDS011;2994;51.220;4.412;2024-01-11T06:41:46;25.00;;;19.57;;
5937;SDS011;2994;51.220;4.412;2024-01-11T06:44:11;23.73;;;19.83;;
5937;SDS011;2994;51.220;4.412;2024-01-11T06:46:37;24.27;;;18.77;;
5937;SDS011;2994;51.220;4.412;2024-01-11T06:49:04;25.23;;;20.23;;
5937;SDS011;2994;51.220;4.412;2024-01-11T06:51:30;24.47;;;20.67;;
5937;SDS011;2994;51.220;4.412;2024-01-11T06:53:55;21.93;;;19.10;;
5937;SDS011;2994;51.220;4.412;2024-01-11T06:56:21;24.90;;;21.63;;
5937;SDS011;2994;51.220;4.412;2024-01-11T06:58:46;22.97;;;18.77;;
5937;SDS011;2994;51.220;4.412;2024-01-11T07:01:12;25.20;;;19.57;;
5937;SDS011;2994;51.220;4.412;2024-01-11T07:03:39;24.27;;;19.40;;
5937;SDS011;2994;51.220;4.412;2024-01-11T07:06:05;23.40;;;19.63;;
5937;SDS011;2994;51.220;4.412;2024-01-11T07:08:31;22.57;;;18.67;;
5937;SDS011;2994;51.220;4.412;2024-01-11T07:10:57;25.13;;;19.93;;
5937;SDS011;2994;51.220;4.412;2024-01-11T07:13:27;22.23;;;18.30;;
5937;SDS011;2994;51.220;4.412;2024-01-11T07:15:53;22.47;;;20.13;;
5937;SDS011;2994;51.220;4.412;2024-01-11T07:18:20;22.30;;;18.80;;
5937;SDS011;2994;51.220;4.412;2024-01-11T07:20:46;23.73;;;19.30;;
5937;SDS011;2994;51.220;4.412;2024-01-11T07:23:12;22.30;;;19.90;;
5937;SDS011;2994;51.220;4.412;2024-01-11T07:25:41;22.93;;;19.30;;
5937;SDS011;2994;51.220;4.412;2024-01-11T07:28:07;24.33;;;20.60;;
5937;SDS011;2994;51.220;4.412;2024-01-11T07:30:33;22.20;;;19.30;;
5937;SDS011;2994;51.220;4.412;2024-01-11T07:33:02;22.50;;;18.43;;
5937;SDS011;2994;51.220;4.412;2024-01-11T07:35:29;23.20;;;19.90;;
5937;SDS011;2994;51.220;4.412;2024-01-11T07:37:55;24.23;;;19.00;;
5937;SDS011;2994;51.220;4.412;2024-01-11T07:40:21;22.00;;;18.90;;
5937;SDS011;2994;51.220;4.412;2024-01-11T07:42:47;21.60;;;18.70;;
5937;SDS011;2994;51.220;4.412;2024-01-11T07:45:13;20.50;;;18.30;;
5937;SDS011;2994;51.220;4.412;2024-01-11T07:47:39;24.20;;;19.87;;
5937;SDS011;2994;51.220;4.412;2024-01-11T07:50:05;25.50;;;19.13;;
5937;SDS011;2994;51.220;4.412;2024-01-11T07:52:37;22.97;;;18.53;;
5937;SDS011;2994;51.220;4.412;2024-01-11T07:55:09;26.13;;;20.40;;
5937;SDS011;2994;51.220;4.412;2024-01-11T07:57:37;25.20;;;18.50;;
5937;SDS011;2994;51.220;4.412;2024-01-11T08:00:03;25.67;;;20.10;;
5937;SDS011;2994;51.220;4.412;2024-01-11T08:02:31;24.43;;;18.97;;
5937;SDS011;2994;51.220;4.412;2024-01-11T08:04:57;25.17;;;20.43;;
5937;SDS011;2994;51.220;4.412;2024-01-11T08:07:24;21.13;;;18.10;;
5937;SDS011;2994;51.220;4.412;2024-01-11T08:09:53;20.87;;;18.67;;
5937;SDS011;2994;51.220;4.412;2024-01-11T08:12:19;22.87;;;19.00;;
5937;SDS011;2994;51.220;4.412;2024-01-11T08:14:44;23.50;;;19.77;;
5937;SDS011;2994;51.220;4.412;2024-01-11T08:17:11;23.20;;;19.73;;
5937;SDS011;2994;51.220;4.412;2024-01-11T08:19:38;21.40;;;18.80;;
5937;SDS011;2994;51.220;4.412;2024-01-11T08:22:04;20.90;;;16.97;;
5937;SDS011;2994;51.220;4.412;2024-01-11T08:24:30;22.53;;;18.70;;
5937;SDS011;2994;51.220;4.412;2024-01-11T08:26:55;22.20;;;18.63;;
5937;SDS011;2994;51.220;4.412;2024-01-11T08:29:22;23.97;;;20.43;;
5937;SDS011;2994;51.220;4.412;2024-01-11T08:31:48;23.40;;;18.33;;
5937;SDS011;2994;51.220;4.412;2024-01-11T08:34:13;20.27;;;17.17;;
5937;SDS011;2994;51.220;4.412;2024-01-11T08:36:39;22.67;;;18.87;;
5937;SDS011;2994;51.220;4.412;2024-01-11T08:39:05;20.90;;;18.13;;
5937;SDS011;2994;51.220;4.412;2024-01-11T08:41:31;23.80;;;20.27;;
5937;SDS011;2994;51.220;4.412;2024-01-11T08:43:57;20.23;;;17.40;;
5937;SDS011;2994;51.220;4.412;2024-01-11T08:46:26;22.10;;;17.63;;
5937;SDS011;2994;51.220;4.412;2024-01-11T08:48:52;23.73;;;19.00;;
5937;SDS011;2994;51.220;4.412;2024-01-11T08:51:21;20.47;;;18.27;;
5937;SDS011;2994;51.220;4.412;2024-01-11T08:53:47;20.77;;;18.57;;
5937;SDS011;2994;51.220;4.412;2024-01-11T08:56:12;21.83;;;19.00;;
5937;SDS011;2994;51.220;4.412;2024-01-11T08:58:42;24.63;;;18.10;;
5937;SDS011;2994;51.220;4.412;2024-01-11T09:01:07;23.50;;;19.70;;
5937;SDS011;2994;51.220;4.412;2024-01-11T09:03:35;22.97;;;18.17;;
5937;SDS011;2994;51.220;4.412;2024-01-11T09:06:02;23.07;;;18.37;;
5937;SDS011;2994;51.220;4.412;2024-01-11T09:08:29;22.67;;;18.63;;
5937;SDS011;2994;51.220;4.412;2024-01-11T09:10:55;24.33;;;20.37;;
5937;SDS011;2994;51.220;4.412;2024-01-11T09:13:21;23.73;;;18.90;;
5937;SDS011;2994;51.220;4.412;2024-01-11T09:15:46;21.93;;;19.57;;
5937;SDS011;2994;51.220;4.412;2024-01-11T09:18:12;20.63;;;18.40;;
5937;SDS011;2994;51.220;4.412;2024-01-11T09:20:40;21.53;;;19.23;;
5937;SDS011;2994;51.220;4.412;2024-01-11T09:23:10;22.90;;;18.87;;
5937;SDS011;2994;51.220;4.412;2024-01-11T09:25:36;23.70;;;18.87;;
5937;SDS011;2994;51.220;4.412;2024-01-11T09:28:05;22.70;;;19.73;;
5937;SDS011;2994;51.220;4.412;2024-01-11T09:30:31;22.30;;;18.97;;
5937;SDS011;2994;51.220;4.412;2024-01-11T09:32:56;23.73;;;20.27;;
5937;SDS011;2994;51.220;4.412;2024-01-11T09:35:22;23.50;;;20.37;;
5937;SDS011;2994;51.220;4.412;2024-01-11T09:37:48;22.13;;;19.50;;
5937;SDS011;2994;51.220;4.412;2024-01-11T09:40:14;24.57;;;20.20;;
5937;SDS011;2994;51.220;4.412;2024-01-11T09:42:40;21.93;;;19.63;;
5937;SDS011;2994;51.220;4.412;2024-01-11T09:45:07;25.80;;;20.33;;
5937;SDS011;2994;51.220;4.412;2024-01-11T09:47:35;22.80;;;19.17;;
5937;SDS011;2994;51.220;4.412;2024-01-11T09:50:05;24.07;;;20.80;;
5937;SDS011;2994;51.220;4.412;2024-01-11T09:52:35;27.67;;;20.90;;
5937;SDS011;2994;51.220;4.412;2024-01-11T09:55:03;23.53;;;20.53;;
5937;SDS011;2994;51.220;4.412;2024-01-11T09:57:29;24.80;;;19.47;;
5937;SDS011;2994;51.220;4.412;2024-01-11T09:59:56;22.50;;;19.40;;
5937;SDS011;2994;51.220;4.412;2024-01-11T10:02:26;24.70;;;21.10;;
5937;SDS011;2994;51.220;4.412;2024-01-11T10:04:52;25.47;;;21.73;;
5937;SDS011;2994;51.220;4.412;2024-01-11T10:07:22;24.37;;;20.97;;
5937;SDS011;2994;51.220;4.412;2024-01-11T10:09:58;25.87;;;22.10;;
5937;SDS011;2994;51.220;4.412;2024-01-11T10:12:23;24.27;;;21.40;;
5937;SDS011;2994;51.220;4.412;2024-01-11T10:14:53;24.60;;;21.87;;
5937;SDS011;2994;51.220;4.412;2024-01-11T10:17:19;23.77;;;20.90;;
5937;SDS011;2994;51.220;4.412;2024-01-11T10:19:46;23.80;;;20.50;;
5937;SDS011;2994;51.220;4.412;2024-01-11T10:22:12;23.73;;;20.50;;
5937;SDS011;2994;51.220;4.412;2024-01-11T10:24:41;24.27;;;20.87;;
5937;SDS011;2994;51.220;4.412;2024-01-11T10:27:08;23.00;;;20.30;;
5937;SDS011;2994;51.220;4.412;2024-01-11T10:29:34;23.50;;;19.87;;
5937;SDS011;2994;51.220;4.412;2024-01-11T10:32:02;25.27;;;21.97;;
5937;SDS011;2994;51.220;4.412;2024-01-11T10:34:28;25.63;;;20.70;;
5937;SDS011;2994;51.220;4.412;2024-01-11T10:36:54;25.20;;;22.40;;
5937;SDS011;2994;51.220;4.412;2024-01-11T10:39:21;22.40;;;19.90;;
5937;SDS011;2994;51.220;4.412;2024-01-11T10:41:51;24.00;;;20.50;;
5937;SDS011;2994;51.220;4.412;2024-01-11T10:44:21;22.73;;;20.07;;
5937;SDS011;2994;51.220;4.412;2024-01-11T10:46:48;25.63;;;21.93;;
5937;SDS011;2994;51.220;4.412;2024-01-11T10:49:18;24.40;;;20.67;;
5937;SDS011;2994;51.220;4.412;2024-01-11T10:51:55;24.20;;;20.90;;
5937;SDS011;2994;51.220;4.412;2024-01-11T10:54:25;25.93;;;22.07;;
5937;SDS011;2994;51.220;4.412;2024-01-11T10:56:52;28.60;;;22.50;;
5937;SDS011;2994;51.220;4.412;2024-01-11T10:59:24;25.13;;;21.27;;
5937;SDS011;2994;51.220;4.412;2024-01-11T11:01:52;26.97;;;22.77;;
5937;SDS011;2994;51.220;4.412;2024-01-11T11:04:20;25.30;;;20.87;;
5937;SDS011;2994;51.220;4.412;2024-01-11T11:06:54;24.23;;;21.37;;
5937;SDS011;2994;51.220;4.412;2024-01-11T11:09:22;25.97;;;21.47;;
5937;SDS011;2994;51.220;4.412;2024-01-11T11:11:48;30.37;;;22.00;;
5937;SDS011;2994;51.220;4.412;2024-01-11T11:14:32;25.43;;;21.47;;
5937;SDS011;2994;51.220;4.412;2024-01-11T11:16:59;25.43;;;21.90;;
5937;SDS011;2994;51.220;4.412;2024-01-11T11:19:25;27.33;;;22.60;;
5937;SDS011;2994;51.220;4.412;2024-01-11T11:21:51;29.93;;;23.27;;
5937;SDS011;2994;51.220;4.412;2024-01-11T11:24:16;25.67;;;22.43;;
5937;SDS011;2994;51.220;4.412;2024-01-11T11:26:45;27.70;;;23.00;;
5937;SDS011;2994;51.220;4.412;2024-01-11T11:29:10;24.33;;;21.73;;
5937;SDS011;2994;51.220;4.412;2024-01-11T11:31:42;27.57;;;22.83;;
5937;SDS011;2994;51.220;4.412;2024-01-11T11:34:12;22.63;;;20.30;;
5937;SDS011;2994;51.220;4.412;2024-01-11T11:36:42;26.97;;;22.07;;
5937;SDS011;2994;51.220;4.412;2024-01-11T11:39:09;25.13;;;21.20;;
5937;SDS011;2994;51.220;4.412;2024-01-11T11:41:38;24.70;;;22.10;;
5937;SDS011;2994;51.220;4.412;2024-01-11T11:44:04;27.80;;;21.97;;
5937;SDS011;2994;51.220;4.412;2024-01-11T11:46:36;28.17;;;22.43;;
5937;SDS011;2994;51.220;4.412;2024-01-11T11:49:02;24.67;;;21.67;;
5937;SDS011;2994;51.220;4.412;2024-01-11T11:51:27;27.90;;;21.27;;
5937;SDS011;2994;51.220;4.412;2024-01-11T11:53:54;25.77;;;20.30;;
5937;SDS011;2994;51.220;4.412;2024-01-11T11:56:20;24.33;;;20.40;;
5937;SDS011;2994;51.220;4.412;2024-01-11T11:58:47;27.00;;;19.50;;
5937;SDS011;2994;51.220;4.412;2024-01-11T12:01:16;22.63;;;19.57;;
5937;SDS011;2994;51.220;4.412;2024-01-11T12:03:42;22.57;;;20.13;;
5937;SDS011;2994;51.220;4.412;2024-01-11T12:06:24;29.53;;;19.90;;
5937;SDS011;2994;51.220;4.412;2024-01-11T12:08:50;24.13;;;20.00;;
5937;SDS011;2994;51.220;4.412;2024-01-11T12:11:17;27.40;;;20.13;;
5937;SDS011;2994;51.220;4.412;2024-01-11T12:13:44;28.83;;;22.20;;
5937;SDS011;2994;51.220;4.412;2024-01-11T12:16:17;24.27;;;19.97;;
5937;SDS011;2994;51.220;4.412;2024-01-11T12:18:42;27.80;;;21.70;;
5937;SDS011;2994;51.220;4.412;2024-01-11T12:21:08;25.40;;;20.00;;
5937;SDS011;2994;51.220;4.412;2024-01-11T12:23:34;31.73;;;21.20;;
5937;SDS011;2994;51.220;4.412;2024-01-11T12:26:01;24.80;;;19.20;;
5937;SDS011;2994;51.220;4.412;2024-01-11T12:28:30;25.77;;;19.73;;
5937;SDS011;2994;51.220;4.412;2024-01-11T12:30:56;25.13;;;21.30;;
5937;SDS011;2994;51.220;4.412;2024-01-11T12:33:22;24.50;;;20.47;;
5937;SDS011;2994;51.220;4.412;2024-01-11T12:35:48;23.70;;;18.50;;
5937;SDS011;2994;51.220;4.412;2024-01-11T12:38:14;24.23;;;18.97;;
5937;SDS011;2994;51.220;4.412;2024-01-11T12:40:43;24.30;;;18.00;;
5937;SDS011;2994;51.220;4.412;2024-01-11T12:43:11;23.40;;;19.53;;
5937;SDS011;2994;51.220;4.412;2024-01-11T12:45:37;24.47;;;19.40;;
5937;SDS011;2994;51.220;4.412;2024-01-11T12:48:03;25.30;;;18.30;;
5937;SDS011;2994;51.220;4.412;2024-01-11T12:50:32;26.47;;;18.93;;
5937;SDS011;2994;51.220;4.412;2024-01-11T12:53:11;24.00;;;19.33;;
5937;SDS011;2994;51.220;4.412;2024-01-11T12:55:48;20.90;;;17.47;;
5937;SDS011;2994;51.220;4.412;2024-01-11T12:58:18;28.23;;;20.00;;
5937;SDS011;2994;51.220;4.412;2024-01-11T13:00:45;24.27;;;19.60;;
5937;SDS011;2994;51.220;4.412;2024-01-11T13:03:11;23.87;;;18.60;;
5937;SDS011;2994;51.220;4.412;2024-01-11T13:05:36;24.60;;;18.50;;
5937;SDS011;2994;51.220;4.412;2024-01-11T13:08:02;26.93;;;17.90;;
5937;SDS011;2994;51.220;4.412;2024-01-11T13:10:32;25.10;;;19.40;;
5937;SDS011;2994;51.220;4.412;2024-01-11T13:12:58;24.23;;;18.30;;
5937;SDS011;2994;51.220;4.412;2024-01-11T13:15:25;26.63;;;19.10;;
5937;SDS011;2994;51.220;4.412;2024-01-11T13:17:50;23.10;;;18.50;;
5937;SDS011;2994;51.220;4.412;2024-01-11T13:20:16;23.23;;;17.83;;
5937;SDS011;2994;51.220;4.412;2024-01-11T13:22:42;25.63;;;17.87;;
5937;SDS011;2994;51.220;4.412;2024-01-11T13:25:08;25.10;;;16.97;;
5937;SDS011;2994;51.220;4.412;2024-01-11T13:27:34;23.03;;;17.80;;
5937;SDS011;2994;51.220;4.412;2024-01-11T13:30:00;21.83;;;16.50;;
5937;SDS011;2994;51.220;4.412;2024-01-11T13:32:26;21.10;;;15.63;;
5937;SDS011;2994;51.220;4.412;2024-01-11T13:34:52;22.20;;;17.20;;
5937;SDS011;2994;51.220;4.412;2024-01-11T13:37:18;24.87;;;16.27;;
5937;SDS011;2994;51.220;4.412;2024-01-11T13:39:44;20.90;;;18.47;;
5937;SDS011;2994;51.220;4.412;2024-01-11T13:42:09;23.63;;;17.00;;
5937;SDS011;2994;51.220;4.412;2024-01-11T13:44:35;22.53;;;16.30;;
5937;SDS011;2994;51.220;4.412;2024-01-11T13:47:01;22.93;;;17.30;;
5937;SDS011;2994;51.220;4.412;2024-01-11T13:49:27;22.97;;;17.07;;
5937;SDS011;2994;51.220;4.412;2024-01-11T13:51:52;25.93;;;17.03;;
5937;SDS011;2994;51.220;4.412;2024-01-11T13:54:17;22.57;;;17.10;;
5937;SDS011;2994;51.220;4.412;2024-01-11T13:56:43;24.37;;;17.90;;
5937;SDS011;2994;51.220;4.412;2024-01-11T13:59:08;25.17;;;19.30;;
5937;SDS011;2994;51.220;4.412;2024-01-11T14:01:34;23.10;;;18.37;;
5937;SDS011;2994;51.220;4.412;2024-01-11T14:04:02;21.57;;;16.77;;
5937;SDS011;2994;51.220;4.412;2024-01-11T14:06:28;24.43;;;16.43;;
5937;SDS011;2994;51.220;4.412;2024-01-11T14:08:53;22.10;;;16.70;;
5937;SDS011;2994;51.220;4.412;2024-01-11T14:11:19;19.20;;;14.33;;
5937;SDS011;2994;51.220;4.412;2024-01-11T14:13:44;19.73;;;14.43;;
5937;SDS011;2994;51.220;4.412;2024-01-11T14:16:10;16.00;;;12.73;;
5937;SDS011;2994;51.220;4.412;2024-01-11T14:18:38;16.40;;;10.87;;
5937;SDS011;2994;51.220;4.412;2024-01-11T14:21:04;13.40;;;10.80;;
5937;SDS011;2994;51.220;4.412;2024-01-11T14:23:30;15.67;;;10.70;;
5937;SDS011;2994;51.220;4.412;2024-01-11T14:25:59;17.63;;;10.70;;
5937;SDS011;2994;51.220;4.412;2024-01-11T14:28:25;18.20;;;11.43;;
5937;SDS011;2994;51.220;4.412;2024-01-11T14:30:53;15.30;;;10.17;;
5937;SDS011;2994;51.220;4.412;2024-01-11T14:33:18;14.73;;;10.43;;
5937;SDS011;2994;51.220;4.412;2024-01-11T14:35:45;14.07;;;9.87;;
5937;SDS011;2994;51.220;4.412;2024-01-11T14:38:10;15.40;;;9.90;;
5937;SDS011;2994;51.220;4.412;2024-01-11T14:40:36;16.80;;;10.87;;
5937;SDS011;2994;51.220;4.412;2024-01-11T14:43:01;16.67;;;10.60;;